• Join FlightAware (Why Join?)
  • Login
  • US Flag 
05:57PM EDT


 

Airport Tracker/Info


-or-


 

Live Flight TrackerFlight Track Log ✈ SWA3625 ✈ 09-Mar-2013 ✈ KLAS - KBDL

Flight Track Log - Related Links

Times and Time Zones

All times are in EST time to prevent confusion due to time zone crossing. See the SWA3625 flight status page for this flight to view local times or setup timezone preferences in your user account.

Time Position Orientation Groundspeed Altitude Reporting Facility
EST Latitude Longitude Course Direction KTS MPH feet Rate Location/Type
12:27PM 36.0767 -115.1706 270° West 176 203 3,200  Level Los Angeles Center
12:28PM 36.0764 -115.2186 270° West 194 223 4,400 1,860 Climbing Los Angeles Center
12:28PM 36.0922 -115.2825 287° West 244 281 6,300 2,160 Climbing Los Angeles Center
12:29PM 36.1089 -115.2892 342° North 229 264 7,100 2,640 Climbing Los Angeles Center
12:30PM 36.1614 -115.2731 14° North 266 306 9,300 2,640 Climbing Los Angeles Center
12:31PM 36.1928 -115.1883 65° Northeast 277 319 11,900 2,280 Climbing Los Angeles Center
12:31PM 36.1969 -115.1728 72° East 277 319 12,200 1,380 Climbing Los Angeles Center
12:32PM 36.1983 -115.0614 89° East 318 366 13,700 2,220 Climbing Los Angeles Center
12:33PM 36.2000 -114.9128 89° East 354 407 16,900 2,760 Climbing Los Angeles Center
12:34PM 36.2008 -114.7856 89° East 365 420 19,400 2,340 Climbing Los Angeles Center
12:35PM 36.1997 -114.6550 91° East 377 434 21,800 1,920 Climbing Los Angeles Center
12:36PM 36.1969 -114.5219 91° East 384 442 23,800 1,800 Climbing Los Angeles Center
12:37PM 36.1950 -114.3578 91° East 395 455 25,900 1,740 Climbing Los Angeles Center
12:38PM 36.1950 -114.2167 90° East 406 467 27,500 1,500 Climbing Los Angeles Center
12:39PM 36.2128 -114.0758 81° East 412 474 29,000 1,680 Climbing Los Angeles Center
12:40PM 36.2406 -113.9058 78° East 420 483 31,000 1,680 Climbing Los Angeles Center
12:41PM 36.2847 -113.7744 67° East 415 478 32,500 960 Climbing Los Angeles Center
12:42PM 36.3300 -113.6408 67° East 419 482 33,100 600 Climbing Los Angeles Center
12:43PM 36.3786 -113.4994 67° East 440 506 33,800 840 Climbing Los Angeles Center
12:44PM 36.4269 -113.3556 67° East 452 520 34,900 780 Climbing Los Angeles Center
12:45PM 36.4753 -113.2128 67° East 457 526 35,500 780 Climbing Los Angeles Center
12:46PM 36.5353 -113.0339 67° East 467 537 36,500 720 Climbing Los Angeles Center
12:48PM 36.5847 -112.8842 68° East 471 542 37,000 240 Climbing Los Angeles Center
12:49PM 36.6342 -112.7358 67° East 469 540 37,000  Level Los Angeles Center
12:50PM 36.6831 -112.5861 68° East 469 540 37,000  Level Los Angeles Center
12:51PM 36.7317 -112.4378 68° East 468 539 37,000  Level Los Angeles Center
12:52PM 36.7808 -112.2897 67° East 466 536 37,000  Level Los Angeles Center
12:53PM 36.8383 -112.1114 68° East 466 536 37,000  Level Los Angeles Center
12:53PM 36.8594 -112.0492 67° East 468 539 37,000  Level Denver Center
12:54PM 36.9072 -111.9000 68° East 467 537 37,000  Level Denver Center
12:55PM 36.9550 -111.7522 68° East 464 534 37,000  Level Denver Center
12:56PM 37.0033 -111.6028 68° East 465 535 37,000  Level Denver Center
12:57PM 37.0500 -111.4531 69° East 465 535 37,000  Level Denver Center
12:58PM 37.0944 -111.3078 69° East 457 526 37,000  Level Denver Center
12:59PM 37.1492 -111.1294 69° East 459 528 37,000  Level Denver Center
01:00PM 37.1950 -110.9825 69° East 455 524 37,000  Level Denver Center
01:01PM 37.2406 -110.8358 69° East 454 522 37,000  Level Denver Center
01:02PM 37.2858 -110.6878 69° East 455 524 37,000  Level Denver Center
01:03PM 37.3314 -110.5386 69° East 458 527 37,000  Level Denver Center
01:04PM 37.3772 -110.3903 69° East 457 526 37,000  Level Denver Center
01:05PM 37.4325 -110.2122 69° East 458 527 37,000  Level Denver Center
01:06PM 37.4756 -110.0692 69° East 460 529 37,000  Level Denver Center
01:07PM 37.5192 -109.9256 69° East 459 528 37,000  Level Denver Center
01:09PM 37.5708 -109.7575 69° East 460 529 37,000  Level Denver Center
01:10PM 37.6128 -109.6133 70° East 457 526 37,000  Level Denver Center
01:11PM 37.6639 -109.4458 69° East 456 525 37,000  Level Denver Center
01:12PM 37.7061 -109.3033 69° East 456 525 37,000  Level Denver Center
01:13PM 37.7564 -109.1356 69° East 455 524 37,000  Level Denver Center
01:14PM 37.7992 -108.9897 70° East 459 528 37,000  Level Denver Center
01:15PM 37.8414 -108.8436 70° East 461 531 37,000  Level Denver Center
01:16PM 37.8900 -108.6708 70° East 465 535 37,000  Level Denver Center
01:17PM 37.9331 -108.5264 69° East 461 531 37,000  Level Denver Center
01:18PM 37.9819 -108.3556 70° East 459 528 37,000  Level Denver Center
01:19PM 38.0244 -108.2075 70° East 464 534 37,000  Level Denver Center
01:20PM 38.0725 -108.0314 71° East 468 539 37,000  Level Denver Center
01:21PM 38.1156 -107.8844 70° East 469 540 37,000  Level Denver Center
01:22PM 38.1575 -107.7381 70° East 465 535 37,000  Level Denver Center
01:23PM 38.2050 -107.5669 70° East 463 533 37,000  Level Denver Center
01:24PM 38.2461 -107.4181 71° East 464 534 37,000  Level Denver Center
01:25PM 38.2942 -107.2453 70° East 466 536 37,000  Level Denver Center
01:26PM 38.3372 -107.0944 70° East 467 537 37,000  Level Denver Center
01:27PM 38.3811 -106.9414 70° East 463 533 37,000  Level Denver Center
01:28PM 38.4239 -106.7875 70° East 462 532 37,000  Level Denver Center
01:29PM 38.4669 -106.6317 71° East 466 536 37,000  Level Denver Center
01:30PM 38.5092 -106.4767 71° East 463 533 37,000  Level Denver Center
01:31PM 38.5619 -106.2872 70° East 472 543 37,000  Level Denver Center
01:32PM 38.6044 -106.1331 71° East 470 541 37,000  Level Denver Center
01:33PM 38.6508 -105.9589 71° East 475 547 37,000  Level Denver Center
01:34PM 38.6942 -105.7978 71° East 478 550 37,000  Level Denver Center
01:35PM 38.7378 -105.6361 71° East 477 549 37,000  Level Denver Center
01:36PM 38.7808 -105.4739 71° East 478 550 37,000  Level Denver Center
01:37PM 38.8242 -105.3100 71° East 481 554 37,000  Level Denver Center
01:38PM 38.8672 -105.1472 71° East 480 552 37,000  Level Denver Center
01:39PM 38.9089 -104.9850 72° East 478 550 37,000  Level Denver Center
01:40PM 38.9511 -104.8219 72° East 478 550 37,000  Level Denver Center
01:41PM 38.9944 -104.6589 71° East 480 552 37,000  Level Denver Center
01:43PM 39.0492 -104.4444 72° East 472 543 37,000  Level Denver Center
01:44PM 39.0892 -104.2822 72° East 473 544 37,000  Level Denver Center
01:45PM 39.1308 -104.1192 72° East 476 548 37,000  Level Denver Center
01:46PM 39.1714 -103.9547 72° East 479 551 37,000  Level Denver Center
01:47PM 39.2136 -103.7922 71° East 475 547 37,000  Level Denver Center
01:48PM 39.2533 -103.6275 73° East 478 550 37,000  Level Denver Center
01:49PM 39.2997 -103.4392 72° East 471 542 37,000  Level Denver Center
01:50PM 39.3381 -103.2758 73° East 472 543 37,000  Level Denver Center
01:51PM 39.3783 -103.1131 72° East 472 543 37,000  Level Denver Center
01:52PM 39.4178 -102.9478 73° East 476 548 37,000  Level Denver Center
01:53PM 39.4583 -102.7836 72° East 476 548 37,000  Level Denver Center
01:54PM 39.4964 -102.6169 73° East 478 550 37,000  Level Denver Center
01:55PM 39.5350 -102.4508 73° East 478 550 37,000  Level Denver Center
01:56PM 39.5764 -102.2822 72° East 483 556 37,000  Level Denver Center
01:57PM 39.6189 -102.0914 74° East 492 566 37,000  Level Denver Center
01:58PM 39.6558 -101.9286 74° East 493 567 37,000  Level Denver Center
01:59PM 39.6933 -101.7656 73° East 494 568 37,000  Level Denver Center
02:00PM 39.7372 -101.5739 73° East 498 573 37,000  Level Denver Center
02:01PM 39.7739 -101.4092 74° East 498 573 37,000  Level Denver Center
02:02PM 39.8167 -101.2183 74° East 495 570 37,000  Level Denver Center
02:03PM 39.8517 -101.0539 74° East 496 571 37,000  Level Denver Center
02:04PM 39.8947 -100.8642 73° East 491 565 37,000  Level Denver Center
02:05PM 39.9303 -100.6986 74° East 496 571 37,000  Level Denver Center
02:06PM 39.9653 -100.5333 75° East 497 572 37,000  Level Denver Center
02:07PM 40.0067 -100.3422 74° East 494 568 37,000  Level Denver Center
02:08PM 40.0453 -100.1589 75° East 499 574 37,000  Level Denver Center
02:09PM 40.0819 -99.9831 75° East 496 571 37,000  Level Denver Center
02:10PM 40.1183 -99.8128 74° East 496 571 37,000  Level Denver Center
02:11PM 40.1544 -99.6392 75° East 495 570 37,000  Level Denver Center
02:12PM 40.1903 -99.4642 75° East 500 575 37,000  Level Denver Center
02:13PM 40.2250 -99.2903 75° East 496 571 37,000  Level Denver Center
02:14PM 40.2603 -99.1144 75° East 500 575 37,000  Level Denver Center
02:15PM 40.3025 -98.9083 75° East 493 567 37,000  Level Denver Center
02:16PM 40.3361 -98.7358 76° East 490 564 37,000  Level Denver Center
02:17PM 40.3692 -98.5639 76° East 489 563 37,000  Level Denver Center
02:19PM 40.4089 -98.3589 76° East 489 563 37,000  Level Minneapolis Center
02:20PM 40.4364 -98.2231 75° East 487 560 37,000  Level Minneapolis Center
02:21PM 40.4753 -98.0178 76° East 486 559 37,000  Level Minneapolis Center
02:22PM 40.5069 -97.8450 76° East 486 559 37,000  Level Minneapolis Center
02:23PM 40.5397 -97.6731 76° East 486 559 37,000  Level Minneapolis Center
02:24PM 40.5786 -97.4625 76° East 490 564 37,000  Level Minneapolis Center
02:25PM 40.6114 -97.2839 76° East 495 570 37,000  Level Minneapolis Center
02:26PM 40.6428 -97.1086 77° East 496 571 37,000  Level Minneapolis Center
02:27PM 40.6753 -96.9344 76° East 494 568 37,000  Level Minneapolis Center
02:28PM 40.7064 -96.7603 77° East 492 566 37,000 180 Level Minneapolis Center
02:29PM 40.7361 -96.5864 77° East 491 565 37,400 720 Climbing Minneapolis Center
02:30PM 40.7672 -96.4150 76° East 488 562 38,500 780 Climbing Minneapolis Center
02:31PM 40.7967 -96.2436 77° East 483 556 39,000 240 Climbing Minneapolis Center
02:32PM 40.8278 -96.0661 77° East 494 568 39,000  Level Minneapolis Center
02:33PM 40.8633 -95.8542 77° East 498 573 39,000  Level Minneapolis Center
02:34PM 40.8931 -95.6772 77° East 498 573 39,000  Level Minneapolis Center
02:35PM 40.9231 -95.4983 77° East 501 577 39,000  Level Minneapolis Center
02:36PM 40.9525 -95.3228 77° East 496 571 39,000  Level Minneapolis Center
02:37PM 40.9819 -95.1467 77° East 493 567 39,000  Level Minneapolis Center
02:38PM 41.0097 -94.9708 78° East 491 565 39,000  Level Minneapolis Center
02:39PM 41.0378 -94.7944 78° East 491 565 39,000  Level Minneapolis Center
02:40PM 41.0656 -94.6167 78° East 492 566 39,000  Level Minneapolis Center
02:41PM 41.0931 -94.4364 79° East 495 570 39,000  Level Minneapolis Center
02:42PM 41.1256 -94.2217 79° East 496 571 39,000  Level Minneapolis Center
02:43PM 41.1536 -94.0425 78° East 498 573 39,000  Level Minneapolis Center
02:44PM 41.1800 -93.8647 79° East 496 571 39,000  Level Minneapolis Center
02:45PM 41.2072 -93.6844 79° East 497 572 39,000  Level Minneapolis Center
02:46PM 41.2347 -93.5036 79° East 498 573 39,000  Level Minneapolis Center
02:47PM 41.2633 -93.3197 78° East 503 579 39,000  Level Minneapolis Center
02:48PM 41.2889 -93.1372 79° East 504 580 39,000  Level Minneapolis Center
02:49PM 41.3153 -92.9542 79° East 505 581 39,000  Level Minneapolis Center
02:50PM 41.3411 -92.7717 79° East 505 581 39,000  Level Minneapolis Center
02:51PM 41.3675 -92.5844 79° East 508 585 39,000  Level Chicago Center
02:52PM 41.3917 -92.4036 80° East 503 579 39,000  Level Chicago Center
02:53PM 41.4169 -92.2250 79° East 498 573 39,000  Level Chicago Center
02:54PM 41.4406 -92.0475 80° East 494 568 39,000  Level Chicago Center
02:55PM 41.4639 -91.8689 80° East 494 568 39,000  Level Chicago Center
02:56PM 41.4925 -91.6550 80° East 493 567 39,000  Level Chicago Center
02:57PM 41.5150 -91.4767 80° East 492 566 39,000  Level Chicago Center
02:58PM 41.5389 -91.2978 80° East 494 568 39,000  Level Chicago Center
02:59PM 41.5614 -91.1172 80° East 498 573 39,000  Level Chicago Center
03:01PM 41.5842 -90.9369 80° East 498 573 39,000  Level Chicago Center
03:02PM 41.6106 -90.7175 81° East 503 579 39,000  Level Chicago Center
03:03PM 41.6314 -90.5361 81° East 507 583 39,000  Level Chicago Center
03:04PM 41.6544 -90.3506 80° East 507 583 39,000  Level Chicago Center
03:05PM 41.6769 -90.1631 81° East 508 585 39,000  Level Chicago Center
03:06PM 41.6989 -89.9722 81° East 514 592 39,000  Level Chicago Center
03:07PM 41.7203 -89.7822 81° East 515 593 39,000  Level Chicago Center
03:08PM 41.7414 -89.5908 82° East 517 595 39,000  Level Chicago Center
03:09PM 41.7656 -89.3800 81° East 519 597 39,000  Level Chicago Center
03:10PM 41.7864 -89.1928 81° East 511 588 39,000  Level Chicago Center
03:11PM 41.8056 -89.0053 82° East 513 590 39,000  Level Chicago Center
03:12PM 41.8253 -88.8181 82° East 511 588 39,000  Level Chicago Center
03:13PM 41.8483 -88.5942 82° East 506 582 39,000  Level Chicago Center
03:14PM 41.8667 -88.4078 82° East 504 580 39,000  Level Chicago Center
03:15PM 41.8850 -88.2214 82° East 500 575 39,000  Level Chicago Center
03:16PM 41.9031 -88.0389 82° East 494 568 39,000  Level Chicago Center
03:17PM 41.9208 -87.8561 82° East 492 566 39,000  Level Chicago Center
03:18PM 41.9381 -87.6728 83° East 493 567 39,000  Level Chicago Center
03:19PM 41.9556 -87.4900 83° East 494 568 39,000  Level Chicago Center
03:20PM 41.9736 -87.3075 82° East 494 568 39,000  Level Chicago Center
03:21PM 41.9900 -87.1231 83° East 496 571 39,000  Level Chicago Center
03:22PM 42.0103 -86.9022 83° East 498 573 39,000  Level Chicago Center
03:23PM 42.0256 -86.7158 84° East 502 578 39,000  Level Chicago Center
03:24PM 42.0406 -86.5256 84° East 509 586 39,000  Level Chicago Center
03:25PM 42.0564 -86.3386 83° East 505 581 39,000  Level Chicago Center
03:26PM 42.0717 -86.1506 84° East 504 580 39,000  Level Chicago Center
03:27PM 42.0864 -85.9619 84° East 505 581 39,000  Level Chicago Center
03:28PM 42.1022 -85.7511 84° East 507 583 39,000  Level Chicago Center
03:29PM 42.1172 -85.5642 84° East 508 585 39,000  Level Chicago Center
03:30PM 42.1308 -85.3744 84° East 511 588 39,000  Level Chicago Center
03:31PM 42.1414 -85.2744 82° East 502 578 39,000  Level Cleveland Center
03:32PM 42.1553 -85.0850 84° East 502 578 39,000  Level Cleveland Center
03:33PM 42.1689 -84.8925 84° East 502 578 39,000  Level Cleveland Center
03:34PM 42.1797 -84.7081 85° East 496 571 39,000  Level Cleveland Center
03:35PM 42.1883 -84.5208 86° East 496 571 39,000  Level Cleveland Center
03:36PM 42.2008 -84.3339 85° East 496 571 39,000  Level Cleveland Center
03:37PM 42.2131 -84.1467 85° East 496 571 39,000  Level Cleveland Center
03:38PM 42.2250 -83.9594 85° East 496 571 39,000  Level Cleveland Center
03:39PM 42.2347 -83.7719 86° East 496 571 39,000  Level Cleveland Center
03:40PM 42.2464 -83.5650 86° East 496 571 39,000  Level Cleveland Center
03:41PM 42.2572 -83.3886 85° East 510 587 39,000  Level Cleveland Center
03:42PM 42.2683 -83.1758 86° East 515 593 39,000  Level Cleveland Center
03:43PM 42.2789 -82.9856 86° East 515 593 39,000  Level Cleveland Center
03:44PM 42.2889 -82.7950 86° East 510 587 39,000  Level Cleveland Center
03:45PM 42.2986 -82.6072 86° East 510 587 39,000  Level Cleveland Center
03:46PM 42.3081 -82.4139 86° East 510 587 39,000  Level Cleveland Center
03:47PM 42.3172 -82.2258 86° East 510 587 39,000  Level Cleveland Center
03:48PM 42.3258 -82.0378 86° East 510 587 39,000  Level Cleveland Center
03:49PM 42.3364 -81.8472 86° East 505 581 39,000  Level Cleveland Center
03:50PM 42.3425 -81.6561 87° East 505 581 39,000  Level Cleveland Center
03:51PM 42.3506 -81.4653 87° East 499 574 39,000  Level Cleveland Center
03:52PM 42.3581 -81.2772 87° East 499 574 39,000  Level Cleveland Center
03:53PM 42.3653 -81.1058 87° East 499 574 39,000  Level Cleveland Center
03:54PM 42.3722 -80.9175 87° East 505 581 39,000  Level Cleveland Center
03:55PM 42.3789 -80.7264 87° East 499 574 39,000  Level Cleveland Center
03:56PM 42.3853 -80.5411 87° East 494 568 39,000  Level Cleveland Center
03:57PM 42.3892 -80.3528 88° East 501 577 39,000  Level Cleveland Center
03:58PM 42.3947 -80.1475 88° East 496 571 39,000  Level Cleveland Center
03:59PM 42.4022 -79.9617 87° East 496 571 39,000  Level Cleveland Center
04:00PM 42.4075 -79.7761 88° East 496 571 39,000  Level Cleveland Center
04:01PM 42.4100 -79.5878 89° East 496 571 39,000  Level Cleveland Center
04:02PM 42.4125 -79.4019 89° East 496 571 39,000  Level Cleveland Center
04:03PM 42.4167 -79.2136 88° East 496 571 39,000  Level Cleveland Center
04:04PM 42.4206 -79.0250 88° East 496 571 39,000  Level Cleveland Center
04:05PM 42.4244 -78.8561 88° East 496 571 39,000  Level Cleveland Center
04:06PM 42.4297 -78.6647 88° East 496 571 39,000  Level Cleveland Center
04:07PM 42.4306 -78.4789 90° East 496 571 39,000  Level Cleveland Center
04:08PM 42.4328 -78.2650 89° East 501 577 39,000  Level Cleveland Center
04:09PM 42.4350 -78.0764 89° East 501 577 39,000 -360 Level Cleveland Center
04:10PM 42.4369 -77.8878 89° East 496 571 38,300 -840 Descending Cleveland Center
04:11PM 42.4389 -77.7022 89° East 496 571 37,400 -960 Descending Cleveland Center
04:13PM 42.4389 -77.3306 90° East 476 548 35,500 -840 Descending Boston Center
04:14PM 42.4381 -77.1503 90° East 476 548 35,000 -300 Descending Boston Center
04:15PM 42.4453 -76.9736 87° East 476 548 35,000  Level Boston Center
04:16PM 42.4647 -76.8003 81° East 470 541 35,000  Level Boston Center
04:17PM 42.4811 -76.6381 82° East 475 547 35,000  Level Boston Center
04:18PM 42.5000 -76.4647 82° East 475 547 35,000 -300 Level Boston Center
04:19PM 42.5103 -76.2850 86° East 475 547 34,400 -780 Descending Boston Center
04:20PM 42.5081 -76.1047 91° East 475 547 33,500 -960 Descending Boston Center
04:21PM 42.5053 -75.9242 91° East 475 547 32,500 -1,020 Descending Boston Center
04:22PM 42.5022 -75.7464 91° East 475 547 31,500 -1,020 Descending Boston Center
04:23PM 42.4989 -75.5744 91° East 464 534 30,500 -1,020 Descending Boston Center
04:24PM 42.4950 -75.4081 92° East 453 521 29,500 -1,020 Descending Boston Center
04:25PM 42.4928 -75.2447 91° East 443 510 28,500 -1,020 Descending Boston Center
04:26PM 42.4886 -75.0783 92° East 438 504 27,500 -1,200 Descending Boston Center
04:27PM 42.4839 -74.9178 92° East 438 504 26,100 -1,740 Descending Boston Center
04:28PM 42.4808 -74.7628 91° East 426 490 24,100 -1,500 Descending Boston Center
04:29PM 42.4797 -74.6133 91° East 409 471 22,900 -1,980 Descending Boston Center
04:30PM 42.4850 -74.4306 88° East 379 436 19,800 -2,400 Descending Boston Center
04:31PM 42.4831 -74.2983 91° East 379 436 18,200 -900 Descending Boston Center
04:32PM 42.4750 -74.1489 94° East 373 429 18,000 -600 Descending Boston Center
04:33PM 42.4517 -74.0356 106° East 359 413 17,000 -960 Descending Boston Center
04:34PM 42.4303 -73.9197 104° East 352 405 16,100 -1,020 Descending Boston Center
04:35PM 42.4050 -73.7814 104° East 352 405 15,000 -1,140 Descending Boston Center
04:36PM 42.3794 -73.6486 105° East 343 395 13,900 -1,140 Descending Boston Center
04:37PM 42.3633 -73.5836 109° East 335 386 13,300 -1,020 Descending Boston Center
04:37PM 42.3556 -73.5275 101° East 338 389 12,900 -1,020 Descending Boston Center
04:38PM 42.3397 -73.4542 106° East 330 380 12,300 -1,020 Descending Boston Center
04:38PM 42.3317 -73.4117 104° East 331 381 11,900 -1,020 Descending Boston Center
04:39PM 42.3178 -73.3386 104° East 324 373 11,300 -900 Descending Boston Center
04:39PM 42.3117 -73.3047 104° East 325 374 11,000 -660 Descending Boston Center
04:40PM 42.2892 -73.2400 115° Southeast 310 357 10,700 -1,200 Descending Boston Center
04:41PM 42.2272 -73.1633 137° Southeast 301 346 9,200 -1,440 Descending Boston Center
04:42PM 42.1692 -73.0900 137° Southeast 294 338 7,800 -900 Descending Boston Center
04:43PM 42.1156 -73.0056 131° Southeast 255 293 7,300 -720 Descending Boston Center
04:44PM 42.0575 -72.9658 153° Southeast 244 281 6,300 -1,080 Descending Boston Center
04:45PM 41.9928 -72.9483 169° South 237 273 5,200 -1,200 Descending Boston Center
04:46PM 41.9367 -72.9314 167° South 231 266 4,000 -1,140 Descending Boston Center
04:47PM 41.8889 -72.8806 142° Southeast 220 253 3,000 -660 Descending Boston Center
04:48PM 41.8661 -72.8219 118° Southeast 174 200 2,700 -600 Descending Boston Center
04:49PM 41.8853 -72.7636 66° East 171 197 1,800 -1,020 Descending Boston Center
04:50PM 41.9144 -72.7247 45° Northeast 151 174 700 -1,140 Descending Boston Center